Terminal Aerodrome Forecast
Issued by NWS

Current Version | Previous Version | Graphics & Text | Print | Product List | Glossary On
Versions: 1 2 3 4 5 6 7 8 9 10 11 12 13 14 15 16 17 18
000
FTUS41 KILN 252000 AAA
TAFLCK
TAF AMD
KLCK 252056Z 2521/2618 24012KT P6SM OVC026
     FM260400 19005KT P6SM SCT200
     FM261600 21010G22KT P6SM SCT200=

USA.gov is the U.S. government's official web portal to all federal, state and local government web resources and services.